createdAt,value
2018-05-29T00:00:17.757Z,4.00
2018-05-29T00:01:17.784Z,4.00
2018-05-29T00:02:17.811Z,4.00
2018-05-29T00:03:17.837Z,4.00
2018-05-29T00:04:17.864Z,4.00
2018-05-29T00:05:17.890Z,4.00
2018-05-29T00:06:17.917Z,4.00
2018-05-29T00:07:17.945Z,4.00
2018-05-29T00:08:17.970Z,4.00
2018-05-29T00:09:17.995Z,4.00
2018-05-29T00:10:18.022Z,4.00
2018-05-29T00:11:18.047Z,4.00
2018-05-29T00:12:18.094Z,4.00
2018-05-29T00:13:18.100Z,4.00
2018-05-29T00:14:18.127Z,4.00
2018-05-29T00:15:18.152Z,4.00
2018-05-29T00:16:18.180Z,4.00
2018-05-29T00:17:18.209Z,4.00
2018-05-29T00:18:18.234Z,4.00
2018-05-29T00:19:18.258Z,4.00
2018-05-29T00:20:18.284Z,4.00
2018-05-29T00:21:18.310Z,4.00
2018-05-29T00:22:18.337Z,4.00
2018-05-29T00:23:18.363Z,4.00
2018-05-29T00:24:18.389Z,4.00
2018-05-29T00:25:18.418Z,4.00
2018-05-29T00:26:18.442Z,4.00
2018-05-29T00:27:18.467Z,4.00
2018-05-29T00:28:18.495Z,4.00
2018-05-29T00:29:18.521Z,4.00
2018-05-29T00:30:18.546Z,4.00
2018-05-29T00:31:18.572Z,4.00
2018-05-29T00:32:18.599Z,4.00
2018-05-29T00:33:18.624Z,4.00
2018-05-29T00:34:18.651Z,4.00
2018-05-29T00:35:18.675Z,4.00
2018-05-29T00:36:18.702Z,4.00
2018-05-29T00:37:18.729Z,4.00
2018-05-29T00:38:18.756Z,4.00
2018-05-29T00:39:18.781Z,4.00
2018-05-29T00:40:18.807Z,4.00
2018-05-29T00:41:18.834Z,4.00
2018-05-29T00:42:18.861Z,4.00
2018-05-29T00:43:18.885Z,4.00
2018-05-29T00:44:18.911Z,4.00
2018-05-29T00:45:18.937Z,4.00
2018-05-29T00:46:18.965Z,4.00
2018-05-29T00:47:18.989Z,4.00
2018-05-29T00:48:19.016Z,4.00
2018-05-29T00:49:19.043Z,4.00
2018-05-29T00:50:19.069Z,4.00
2018-05-29T00:51:19.093Z,4.00
2018-05-29T00:52:19.120Z,4.00
2018-05-29T00:53:19.153Z,4.00
2018-05-29T00:54:19.173Z,4.00
2018-05-29T00:55:19.198Z,4.00
2018-05-29T00:56:19.224Z,4.00
2018-05-29T00:57:19.250Z,4.00
2018-05-29T00:58:19.278Z,4.00
2018-05-29T00:59:19.302Z,4.00
2018-05-29T01:00:19.333Z,4.00
2018-05-29T01:01:19.355Z,4.00
2018-05-29T01:02:19.381Z,4.00
2018-05-29T01:03:19.425Z,4.00
2018-05-29T01:04:19.433Z,4.00
2018-05-29T01:05:19.459Z,4.00
2018-05-29T01:06:19.486Z,4.00
2018-05-29T01:07:19.510Z,4.00
2018-05-29T01:08:19.537Z,4.00
2018-05-29T01:09:19.564Z,4.00
2018-05-29T01:10:19.593Z,4.00
2018-05-29T01:11:19.615Z,4.00
2018-05-29T01:12:19.641Z,4.00
2018-05-29T01:13:19.667Z,4.00
2018-05-29T01:14:19.843Z,4.00
2018-05-29T01:15:19.718Z,4.00
2018-05-29T01:16:19.745Z,4.00
2018-05-29T01:17:19.770Z,4.00
2018-05-29T01:18:19.797Z,4.00
2018-05-29T01:19:19.822Z,4.00
2018-05-29T01:20:19.849Z,4.00
2018-05-29T01:21:19.874Z,4.00
2018-05-29T01:22:19.901Z,4.00
2018-05-29T01:23:19.925Z,4.00
2018-05-29T01:24:19.955Z,4.00
2018-05-29T01:25:19.978Z,4.00
2018-05-29T01:26:20.005Z,4.00
2018-05-29T01:27:20.030Z,4.00
2018-05-29T01:28:20.055Z,4.00
2018-05-29T01:29:20.081Z,4.00
2018-05-29T01:30:20.107Z,4.00
2018-05-29T01:31:20.133Z,4.00
2018-05-29T01:32:20.159Z,4.00
2018-05-29T01:33:20.185Z,4.00
2018-05-29T01:34:20.213Z,4.00
2018-05-29T01:35:20.236Z,4.00
2018-05-29T01:36:20.262Z,4.00
2018-05-29T01:37:20.288Z,4.00
2018-05-29T01:38:20.314Z,4.00
2018-05-29T01:39:20.339Z,4.00
2018-05-29T01:40:20.366Z,4.00
2018-05-29T01:41:20.391Z,4.00
2018-05-29T01:42:20.417Z,4.00
2018-05-29T01:43:20.446Z,4.00
2018-05-29T01:44:20.471Z,4.00
2018-05-29T01:45:20.494Z,4.00
2018-05-29T01:46:20.520Z,4.00
2018-05-29T01:47:20.545Z,4.00
2018-05-29T01:48:20.571Z,4.00
2018-05-29T01:49:20.597Z,4.00
2018-05-29T01:50:20.623Z,4.00
2018-05-29T01:51:20.649Z,4.00
2018-05-29T01:52:20.675Z,4.00
2018-05-29T01:53:20.699Z,4.00
2018-05-29T01:54:20.726Z,4.00
2018-05-29T01:55:20.754Z,4.00
2018-05-29T01:56:20.777Z,4.00
2018-05-29T01:57:20.802Z,4.00
2018-05-29T01:58:20.831Z,4.00
2018-05-29T01:59:20.857Z,4.00
2018-05-29T02:00:20.883Z,4.00
2018-05-29T02:01:20.905Z,4.00
2018-05-29T02:02:20.931Z,4.00
2018-05-29T02:03:20.957Z,4.00
2018-05-29T02:04:21.047Z,4.00
2018-05-29T02:05:21.008Z,4.00
2018-05-29T02:06:21.034Z,4.00
2018-05-29T02:07:21.058Z,4.00
2018-05-29T02:08:21.084Z,4.00
2018-05-29T02:09:21.111Z,4.00
2018-05-29T02:10:21.135Z,4.00
2018-05-29T02:11:21.161Z,4.00
2018-05-29T02:12:21.187Z,4.00
2018-05-29T02:13:21.212Z,4.00
2018-05-29T02:14:21.237Z,4.00
2018-05-29T02:15:21.262Z,4.00
2018-05-29T02:16:21.289Z,4.00
2018-05-29T02:17:21.318Z,4.00
2018-05-29T02:18:21.340Z,4.00
2018-05-29T02:19:21.364Z,4.00
2018-05-29T02:20:21.391Z,4.00
2018-05-29T02:21:21.416Z,4.00
2018-05-29T02:22:21.442Z,4.00
2018-05-29T02:23:21.466Z,4.00
2018-05-29T02:24:21.492Z,4.00
2018-05-29T02:25:21.521Z,4.00
2018-05-29T02:26:21.545Z,4.00
2018-05-29T02:27:21.718Z,4.00
2018-05-29T02:28:21.593Z,4.00
2018-05-29T02:29:21.619Z,4.00
2018-05-29T02:30:21.660Z,4.00
2018-05-29T02:31:21.674Z,4.00
2018-05-29T02:32:21.696Z,8.00
2018-05-29T02:33:21.723Z,8.00
2018-05-29T02:34:21.748Z,8.00
2018-05-29T02:35:21.775Z,8.00
2018-05-29T02:36:21.798Z,8.00
2018-05-29T02:37:21.823Z,4.00
2018-05-29T02:38:21.848Z,4.00
2018-05-29T02:39:21.875Z,4.00
2018-05-29T02:40:21.900Z,4.00
2018-05-29T02:41:21.924Z,8.00
2018-05-29T02:42:21.951Z,8.00
2018-05-29T02:43:21.976Z,8.00
2018-05-29T02:44:22.002Z,8.00
2018-05-29T02:45:22.027Z,8.00
2018-05-29T02:46:22.052Z,8.00
2018-05-29T02:47:22.227Z,12.00
2018-05-29T02:48:22.102Z,8.00
2018-05-29T02:49:22.128Z,12.00
2018-05-29T02:50:22.155Z,12.00
2018-05-29T02:51:22.177Z,12.00
2018-05-29T02:52:22.204Z,12.00
2018-05-29T02:53:22.229Z,16.00
2018-05-29T02:54:22.254Z,16.00
2018-05-29T02:55:22.279Z,16.00
2018-05-29T02:56:22.304Z,16.00
2018-05-29T02:57:22.330Z,16.00
2018-05-29T02:58:22.356Z,20.00
2018-05-29T02:59:22.384Z,20.00
2018-05-29T03:00:22.409Z,20.00
2018-05-29T03:01:22.432Z,28.00
2018-05-29T03:02:22.457Z,28.00
2018-05-29T03:03:22.481Z,32.00
2018-05-29T03:04:22.508Z,36.00
2018-05-29T03:05:22.532Z,40.00
2018-05-29T03:06:22.560Z,48.00
2018-05-29T03:07:22.582Z,48.00
2018-05-29T03:08:22.607Z,56.00
2018-05-29T03:09:22.633Z,60.00
2018-05-29T03:10:22.658Z,64.00
2018-05-29T03:11:22.682Z,68.00
2018-05-29T03:12:22.708Z,76.00
2018-05-29T03:13:22.735Z,80.00
2018-05-29T03:14:22.760Z,92.00
2018-05-29T03:15:22.783Z,96.00
2018-05-29T03:16:22.810Z,104.00
2018-05-29T03:17:22.835Z,116.00
2018-05-29T03:18:22.861Z,120.00
2018-05-29T03:19:22.886Z,124.00
2018-05-29T03:20:22.911Z,132.00
2018-05-29T03:21:22.935Z,140.00
2018-05-29T03:22:22.961Z,148.00
2018-05-29T03:23:22.986Z,156.00
2018-05-29T03:24:23.012Z,172.00
2018-05-29T03:25:23.038Z,184.00
2018-05-29T03:26:23.065Z,196.00
2018-05-29T03:27:23.086Z,208.00
2018-05-29T03:28:23.112Z,220.00
2018-05-29T03:29:23.137Z,236.00
2018-05-29T03:30:23.165Z,252.00
2018-05-29T03:31:23.189Z,268.00
2018-05-29T03:32:23.212Z,284.00
2018-05-29T03:33:23.238Z,300.00
2018-05-29T03:34:23.275Z,320.00
2018-05-29T03:35:23.288Z,344.00
2018-05-29T03:36:23.313Z,364.00
2018-05-29T03:37:23.341Z,388.00
2018-05-29T03:38:23.364Z,408.00
2018-05-29T03:39:23.397Z,428.00
2018-05-29T03:40:23.414Z,452.00
2018-05-29T03:41:23.439Z,480.00
2018-05-29T03:42:23.466Z,500.00
2018-05-29T03:43:23.489Z,524.00
2018-05-29T03:44:23.515Z,548.00
2018-05-29T03:45:23.540Z,572.00
2018-05-29T03:46:23.566Z,596.00
2018-05-29T03:47:23.591Z,620.00
2018-05-29T03:48:23.616Z,640.00
2018-05-29T03:49:23.640Z,660.00
2018-05-29T03:50:23.666Z,680.00
2018-05-29T03:51:23.727Z,700.00
2018-05-29T03:52:23.716Z,720.00
2018-05-29T03:53:23.742Z,744.00
2018-05-29T03:54:23.767Z,764.00
2018-05-29T03:55:23.793Z,792.00
2018-05-29T03:56:23.817Z,820.00
2018-05-29T03:57:23.842Z,844.00
2018-05-29T03:58:23.868Z,868.00
2018-05-29T03:59:24.042Z,892.00
2018-05-29T04:00:23.918Z,912.00
2018-05-29T04:01:23.944Z,940.00
2018-05-29T04:02:23.970Z,968.00
2018-05-29T04:03:23.994Z,1000.00
2018-05-29T04:04:24.019Z,1020.00
2018-05-29T04:05:24.044Z,1040.00
2018-05-29T04:06:24.070Z,1056.00
2018-05-29T04:07:24.095Z,1072.00
2018-05-29T04:08:24.121Z,1092.00
2018-05-29T04:09:24.162Z,1104.00
2018-05-29T04:10:24.175Z,1124.00
2018-05-29T04:11:24.195Z,1140.00
2018-05-29T04:12:24.221Z,1156.00
2018-05-29T04:13:24.246Z,1172.00
2018-05-29T04:14:24.275Z,1188.00
2018-05-29T04:15:24.297Z,1196.00
2018-05-29T04:16:24.323Z,1212.00
2018-05-29T04:17:24.352Z,1224.00
2018-05-29T04:18:24.373Z,1236.00
2018-05-29T04:19:24.397Z,1252.00
2018-05-29T04:20:24.423Z,1264.00
2018-05-29T04:21:24.448Z,1280.00
2018-05-29T04:22:24.473Z,1296.00
2018-05-29T04:23:24.497Z,1312.00
2018-05-29T04:24:24.524Z,1328.00
2018-05-29T04:25:24.550Z,1348.00
2018-05-29T04:26:24.574Z,1372.00
2018-05-29T04:27:24.598Z,1392.00
2018-05-29T04:28:24.624Z,1408.00
2018-05-29T04:29:24.650Z,1428.00
2018-05-29T04:30:24.679Z,1444.00
2018-05-29T04:31:24.700Z,1468.00
2018-05-29T04:32:24.725Z,1496.00
2018-05-29T04:33:24.753Z,1516.00
2018-05-29T04:34:24.785Z,1548.00
2018-05-29T04:35:24.800Z,1572.00
2018-05-29T04:36:24.826Z,1604.00
2018-05-29T04:37:24.853Z,1636.00
2018-05-29T04:38:24.877Z,1644.00
2018-05-29T04:39:24.901Z,1668.00
2018-05-29T04:40:24.929Z,1688.00
2018-05-29T04:41:24.952Z,1708.00
2018-05-29T04:42:24.978Z,1736.00
2018-05-29T04:43:25.002Z,1776.00
2018-05-29T04:44:25.028Z,1808.00
2018-05-29T04:45:25.055Z,1840.00
2018-05-29T04:46:25.081Z,1864.00
2018-05-29T04:47:25.105Z,1896.00
2018-05-29T04:48:25.130Z,1928.00
2018-05-29T04:49:25.156Z,1960.00
2018-05-29T04:50:25.183Z,1984.00
2018-05-29T04:51:25.205Z,2000.00
2018-05-29T04:52:25.231Z,2020.00
2018-05-29T04:53:25.260Z,2044.00
2018-05-29T04:54:25.283Z,2060.00
2018-05-29T04:55:25.307Z,2068.00
2018-05-29T04:56:25.335Z,2088.00
2018-05-29T04:57:25.358Z,2104.00
2018-05-29T04:58:25.385Z,2112.00
2018-05-29T04:59:25.408Z,2120.00
2018-05-29T05:00:25.435Z,2128.00
2018-05-29T05:01:25.464Z,2124.00
2018-05-29T05:02:25.486Z,2136.00
2018-05-29T05:03:25.512Z,2144.00
2018-05-29T05:04:25.572Z,2176.00
2018-05-29T05:05:25.563Z,2196.00
2018-05-29T05:06:25.589Z,2220.00
2018-05-29T05:07:25.612Z,2248.00
2018-05-29T05:08:25.638Z,2264.00
2018-05-29T05:09:25.664Z,2288.00
2018-05-29T05:10:25.690Z,2308.00
2018-05-29T05:11:25.714Z,2312.00
2018-05-29T05:12:25.744Z,2340.00
2018-05-29T05:13:25.767Z,2376.00
2018-05-29T05:14:25.844Z,2404.00
2018-05-29T05:15:25.818Z,2428.00
2018-05-29T05:16:25.843Z,2444.00
2018-05-29T05:17:25.869Z,2468.00
2018-05-29T05:18:25.896Z,2492.00
2018-05-29T05:19:25.922Z,2500.00
2018-05-29T05:20:25.947Z,2512.00
2018-05-29T05:21:25.972Z,2512.00
2018-05-29T05:22:26.000Z,2528.00
2018-05-29T05:23:26.024Z,2556.00
2018-05-29T05:24:26.052Z,2580.00
2018-05-29T05:25:26.075Z,2608.00
2018-05-29T05:26:26.101Z,2632.00
2018-05-29T05:27:26.126Z,2640.00
2018-05-29T05:28:26.153Z,2676.00
2018-05-29T05:29:26.181Z,2696.00
2018-05-29T05:30:26.205Z,2704.00
2018-05-29T05:31:26.230Z,2752.00
2018-05-29T05:32:26.258Z,2736.00
2018-05-29T05:33:26.286Z,2732.00
2018-05-29T05:34:26.314Z,2736.00
2018-05-29T05:35:26.395Z,2772.00
2018-05-29T05:36:26.360Z,2784.00
2018-05-29T05:37:26.387Z,2904.00
2018-05-29T05:38:26.414Z,3084.00
2018-05-29T05:39:26.437Z,3208.00
2018-05-29T05:40:26.471Z,3192.00
2018-05-29T05:41:26.490Z,3184.00
2018-05-29T05:42:26.517Z,3296.00
2018-05-29T05:43:26.544Z,3368.00
2018-05-29T05:44:26.568Z,3380.00
2018-05-29T05:45:26.595Z,3380.00
2018-05-29T05:46:26.624Z,3384.00
2018-05-29T05:47:26.646Z,3404.00
2018-05-29T05:48:26.674Z,3404.00
2018-05-29T05:49:26.701Z,3420.00
2018-05-29T05:50:26.728Z,3428.00
2018-05-29T05:51:26.753Z,3444.00
2018-05-29T05:52:26.780Z,3468.00
2018-05-29T05:53:26.807Z,3560.00
2018-05-29T05:54:26.835Z,3460.00
2018-05-29T05:55:26.863Z,3468.00
2018-05-29T05:56:26.887Z,3528.00
2018-05-29T05:57:26.914Z,3504.00
2018-05-29T05:58:26.984Z,3512.00
2018-05-29T05:59:26.969Z,3532.00
2018-05-29T06:00:26.998Z,3568.00
2018-05-29T06:01:27.024Z,3588.00
2018-05-29T06:02:27.050Z,3620.00
2018-05-29T06:03:27.085Z,3636.00
2018-05-29T06:04:27.105Z,3672.00
2018-05-29T06:05:27.136Z,3752.00
2018-05-29T06:06:27.162Z,3700.00
2018-05-29T06:07:27.189Z,3732.00
2018-05-29T06:08:27.215Z,3752.00
2018-05-29T06:09:27.243Z,3784.00
2018-05-29T06:10:27.271Z,3812.00
2018-05-29T06:11:27.299Z,3864.00
2018-05-29T06:12:27.330Z,3904.00
2018-05-29T06:13:27.356Z,3936.00
2018-05-29T06:14:27.383Z,3964.00
2018-05-29T06:15:27.411Z,3980.00
2018-05-29T06:16:27.496Z,4044.00
2018-05-29T06:17:27.468Z,4100.00
2018-05-29T06:18:27.498Z,4136.00
2018-05-29T06:19:27.532Z,4148.00
2018-05-29T06:20:27.553Z,4176.00
2018-05-29T06:21:27.593Z,4208.00
2018-05-29T06:22:27.663Z,4232.00
2018-05-29T06:23:27.639Z,4244.00
2018-05-29T06:24:27.717Z,4280.00
2018-05-29T06:25:27.697Z,4332.00
2018-05-29T06:26:27.727Z,4440.00
2018-05-29T06:27:27.755Z,4400.00
2018-05-29T06:28:27.785Z,4428.00
2018-05-29T06:29:27.814Z,4456.00
2018-05-29T06:30:27.844Z,4492.00
2018-05-29T06:31:27.870Z,4500.00
2018-05-29T06:32:27.902Z,4500.00
2018-05-29T06:33:27.930Z,4356.00
2018-05-29T06:34:27.959Z,4088.00
2018-05-29T06:35:27.987Z,3904.00
2018-05-29T06:36:28.019Z,3868.00
2018-05-29T06:37:28.046Z,3884.00
2018-05-29T06:38:28.073Z,3904.00
2018-05-29T06:39:28.106Z,3984.00
2018-05-29T06:40:28.132Z,4008.00
2018-05-29T06:41:28.196Z,3972.00
2018-05-29T06:42:28.192Z,4028.00
2018-05-29T06:43:28.221Z,4000.00
2018-05-29T06:44:28.259Z,4036.00
2018-05-29T06:45:28.278Z,4048.00
2018-05-29T06:46:28.309Z,4076.00
2018-05-29T06:47:28.338Z,4104.00
2018-05-29T06:48:28.363Z,4284.00
2018-05-29T06:49:28.392Z,4480.00
2018-05-29T06:50:28.422Z,4656.00
2018-05-29T06:51:28.448Z,4788.00
2018-05-29T06:52:28.668Z,4864.00
2018-05-29T06:53:28.506Z,4964.00
2018-05-29T06:54:28.535Z,5004.00
2018-05-29T06:55:28.575Z,5056.00
2018-05-29T06:56:28.592Z,5072.00
2018-05-29T06:57:28.625Z,5096.00
2018-05-29T06:58:28.650Z,5116.00
2018-05-29T06:59:28.678Z,5140.00
2018-05-29T07:00:28.706Z,5176.00
2018-05-29T07:01:28.737Z,5168.00
2018-05-29T07:02:29.018Z,5176.00
2018-05-29T07:03:28.792Z,5168.00
2018-05-29T07:04:28.836Z,5192.00
2018-05-29T07:05:28.854Z,5196.00
2018-05-29T07:06:28.892Z,5244.00
2018-05-29T07:07:28.911Z,5244.00
2018-05-29T07:08:28.953Z,5240.00
2018-05-29T07:09:28.970Z,5252.00
2018-05-29T07:10:29.001Z,5236.00
2018-05-29T07:11:29.030Z,5272.00
2018-05-29T07:12:29.056Z,5304.00
2018-05-29T07:13:29.092Z,5348.00
2018-05-29T07:14:29.146Z,5340.00
2018-05-29T07:15:29.163Z,5356.00
2018-05-29T07:16:29.184Z,5376.00
2018-05-29T07:17:29.216Z,5456.00
2018-05-29T07:18:29.238Z,5400.00
2018-05-29T07:19:29.306Z,5412.00
2018-05-29T07:20:29.295Z,5416.00
2018-05-29T07:21:29.326Z,5424.00
2018-05-29T07:22:29.556Z,5432.00
2018-05-29T07:23:29.385Z,5512.00
2018-05-29T07:24:29.423Z,5528.00
2018-05-29T07:25:29.452Z,5676.00
2018-05-29T07:26:29.476Z,5288.00
2018-05-29T07:27:29.506Z,5108.00
2018-05-29T07:28:29.538Z,4812.00
2018-05-29T07:29:29.575Z,4732.00
2018-05-29T07:30:29.603Z,4716.00
2018-05-29T07:31:29.629Z,4704.00
2018-05-29T07:32:29.658Z,4668.00
2018-05-29T07:33:29.691Z,4708.00
2018-05-29T07:34:29.726Z,4796.00
2018-05-29T07:35:29.749Z,4728.00
2018-05-29T07:36:29.780Z,4744.00
2018-05-29T07:37:29.812Z,4748.00
2018-05-29T07:38:29.846Z,4752.00
2018-05-29T07:39:29.902Z,4800.00
2018-05-29T07:40:29.904Z,4808.00
2018-05-29T07:41:29.933Z,4836.00
2018-05-29T07:42:29.974Z,4856.00
2018-05-29T07:43:29.993Z,4864.00
2018-05-29T07:44:30.025Z,4876.00
2018-05-29T07:45:30.060Z,4884.00
2018-05-29T07:46:30.085Z,4928.00
2018-05-29T07:47:30.124Z,5176.00
2018-05-29T07:48:30.144Z,4956.00
2018-05-29T07:49:30.176Z,4932.00
2018-05-29T07:50:30.207Z,5052.00
2018-05-29T07:51:30.235Z,4988.00
2018-05-29T07:52:30.266Z,4996.00
2018-05-29T07:53:30.295Z,5012.00
2018-05-29T07:54:30.327Z,5152.00
2018-05-29T07:55:30.355Z,5092.00
2018-05-29T07:56:30.385Z,5092.00
2018-05-29T07:57:30.416Z,5120.00
2018-05-29T07:58:30.445Z,5144.00
2018-05-29T07:59:30.477Z,5148.00
2018-05-29T08:00:30.504Z,5168.00
2018-05-29T08:01:30.546Z,5132.00
2018-05-29T08:02:30.566Z,5188.00
2018-05-29T08:03:30.594Z,5140.00
2018-05-29T08:04:30.625Z,5168.00
2018-05-29T08:05:30.655Z,5168.00
2018-05-29T08:06:30.753Z,5240.00
2018-05-29T08:07:30.715Z,5236.00
2018-05-29T08:08:30.745Z,5240.00
2018-05-29T08:09:30.780Z,5260.00
2018-05-29T08:10:30.811Z,5396.00
2018-05-29T08:11:30.834Z,5288.00
2018-05-29T08:12:30.865Z,5284.00
2018-05-29T08:13:30.894Z,5324.00
2018-05-29T08:14:30.931Z,5288.00
2018-05-29T08:15:30.964Z,5316.00
2018-05-29T08:16:30.988Z,5304.00
2018-05-29T08:17:31.016Z,5336.00
2018-05-29T08:18:31.128Z,5428.00
2018-05-29T08:19:31.075Z,5332.00
2018-05-29T08:20:31.107Z,5348.00
2018-05-29T08:21:31.139Z,5340.00
2018-05-29T08:22:31.184Z,5288.00
2018-05-29T08:23:31.194Z,5312.00
2018-05-29T08:24:31.435Z,5320.00
2018-05-29T08:25:31.257Z,5348.00
2018-05-29T08:26:31.290Z,5400.00
2018-05-29T08:27:31.315Z,5412.00
2018-05-29T08:28:31.347Z,5392.00
2018-05-29T08:29:31.376Z,5376.00
2018-05-29T08:30:31.409Z,5536.00
2018-05-29T08:31:31.435Z,5428.00
2018-05-29T08:32:31.469Z,5436.00
2018-05-29T08:33:31.502Z,5464.00
2018-05-29T08:34:31.530Z,5476.00
2018-05-29T08:35:31.561Z,5436.00
2018-05-29T08:36:31.588Z,5464.00
2018-05-29T08:37:31.617Z,5464.00
2018-05-29T08:38:31.646Z,5508.00
2018-05-29T08:39:31.859Z,5472.00
2018-05-29T08:40:31.705Z,5448.00
2018-05-29T08:41:31.736Z,5444.00
2018-05-29T08:42:31.767Z,5472.00
2018-05-29T08:43:31.795Z,5488.00
2018-05-29T08:44:31.825Z,5484.00
2018-05-29T08:45:31.856Z,5460.00
2018-05-29T08:46:31.890Z,5416.00
2018-05-29T08:47:31.929Z,5556.00
2018-05-29T08:48:31.945Z,5464.00
2018-05-29T08:49:31.976Z,5508.00
2018-05-29T08:50:32.009Z,5428.00
2018-05-29T08:51:32.037Z,5520.00
2018-05-29T08:52:32.067Z,5532.00
2018-05-29T08:53:32.097Z,5512.00
2018-05-29T08:54:32.129Z,5712.00
2018-05-29T08:55:32.156Z,5708.00
2018-05-29T08:56:32.187Z,5608.00
2018-05-29T08:57:32.221Z,6232.00
2018-05-29T08:58:32.248Z,5564.00
2018-05-29T08:59:32.277Z,5900.00
2018-05-29T09:00:32.314Z,5632.00
2018-05-29T09:01:32.337Z,5552.00
2018-05-29T09:02:32.368Z,5560.00
2018-05-29T09:03:32.616Z,5516.00
2018-05-29T09:04:32.434Z,5444.00
2018-05-29T09:05:32.461Z,5508.00
2018-05-29T09:06:32.490Z,5488.00
2018-05-29T09:07:32.522Z,5544.00
2018-05-29T09:08:32.550Z,5768.00
2018-05-29T09:09:32.579Z,5536.00
2018-05-29T09:10:32.611Z,5580.00
2018-05-29T09:11:32.641Z,5540.00
2018-05-29T09:12:32.670Z,5532.00
2018-05-29T09:13:32.700Z,5552.00
2018-05-29T09:14:32.731Z,5568.00
2018-05-29T09:15:32.762Z,5564.00
2018-05-29T09:16:32.792Z,5584.00
2018-05-29T09:17:32.823Z,5580.00
2018-05-29T09:18:32.854Z,5580.00
2018-05-29T09:19:32.883Z,5568.00
2018-05-29T09:20:32.914Z,5560.00
2018-05-29T09:21:32.944Z,5620.00
2018-05-29T09:22:33.226Z,5560.00
2018-05-29T09:23:33.008Z,5492.00
2018-05-29T09:24:33.036Z,5640.00
2018-05-29T09:25:33.071Z,5524.00
2018-05-29T09:26:33.101Z,5528.00
2018-05-29T09:27:33.327Z,5536.00
2018-05-29T09:28:33.160Z,5540.00
2018-05-29T09:29:33.236Z,5728.00
2018-05-29T09:30:33.219Z,5532.00
2018-05-29T09:31:33.253Z,5520.00
2018-05-29T09:32:33.282Z,5584.00
2018-05-29T09:33:33.310Z,5516.00
2018-05-29T09:34:33.341Z,5552.00
2018-05-29T09:35:33.432Z,5532.00
2018-05-29T09:36:33.400Z,5492.00
2018-05-29T09:37:33.440Z,5520.00
2018-05-29T09:38:33.466Z,5536.00
2018-05-29T09:39:33.493Z,5692.00
2018-05-29T09:40:33.528Z,5448.00
2018-05-29T09:41:33.569Z,5536.00
2018-05-29T09:42:33.590Z,5496.00
2018-05-29T09:43:33.615Z,5596.00
2018-05-29T09:44:33.645Z,5624.00
2018-05-29T09:45:33.675Z,5548.00
2018-05-29T09:46:33.707Z,5524.00
2018-05-29T09:47:33.735Z,5536.00
2018-05-29T09:48:33.766Z,5600.00
2018-05-29T09:49:33.797Z,5564.00
2018-05-29T09:50:33.828Z,5596.00
2018-05-29T09:51:33.858Z,5580.00
2018-05-29T09:52:33.890Z,5756.00
2018-05-29T09:53:33.921Z,5556.00
2018-05-29T09:54:33.959Z,5556.00
2018-05-29T09:55:33.982Z,5584.00
2018-05-29T09:56:34.011Z,5568.00
2018-05-29T09:57:34.043Z,5636.00
2018-05-29T09:58:34.078Z,5576.00
2018-05-29T09:59:34.103Z,5536.00
2018-05-29T10:00:34.283Z,5536.00
2018-05-29T10:01:34.171Z,5624.00
2018-05-29T10:02:34.194Z,5652.00
2018-05-29T10:03:34.226Z,5568.00
2018-05-29T10:04:34.255Z,5548.00
2018-05-29T10:05:34.291Z,5652.00
2018-05-29T10:06:34.317Z,5708.00
2018-05-29T10:07:34.349Z,5656.00
2018-05-29T10:08:34.378Z,5652.00
2018-05-29T10:09:34.409Z,5716.00
2018-05-29T10:10:34.440Z,5688.00
2018-05-29T10:11:34.469Z,5624.00
2018-05-29T10:12:34.501Z,5580.00
2018-05-29T10:13:34.532Z,5596.00
2018-05-29T10:14:34.717Z,5668.00
2018-05-29T10:15:34.593Z,5656.00
2018-05-29T10:16:34.624Z,5616.00
2018-05-29T10:17:34.654Z,5580.00
2018-05-29T10:18:34.684Z,5588.00
2018-05-29T10:19:34.716Z,5552.00
2018-05-29T10:20:34.746Z,5544.00
2018-05-29T10:21:34.781Z,5652.00
2018-05-29T10:22:34.958Z,5700.00
2018-05-29T10:23:34.837Z,5728.00
2018-05-29T10:24:34.907Z,5616.00
2018-05-29T10:25:34.899Z,5612.00
2018-05-29T10:26:34.931Z,5568.00
2018-05-29T10:27:34.959Z,5540.00
2018-05-29T10:28:34.991Z,5520.00
2018-05-29T10:29:35.023Z,5532.00
2018-05-29T10:30:35.052Z,5508.00
2018-05-29T10:31:35.082Z,5484.00
2018-05-29T10:32:35.113Z,5508.00
2018-05-29T10:33:35.148Z,5504.00
2018-05-29T10:34:35.179Z,5508.00
2018-05-29T10:35:35.207Z,5548.00
2018-05-29T10:36:35.236Z,5548.00
2018-05-29T10:37:35.268Z,5632.00
2018-05-29T10:38:35.299Z,5664.00
2018-05-29T10:39:35.330Z,5772.00
2018-05-29T10:40:35.360Z,5652.00
2018-05-29T10:41:35.390Z,5832.00
2018-05-29T10:42:35.425Z,5828.00
2018-05-29T10:43:35.454Z,5900.00
2018-05-29T10:44:35.482Z,5932.00
2018-05-29T10:45:35.514Z,5916.00
2018-05-29T10:46:35.545Z,5700.00
2018-05-29T10:47:35.575Z,4624.00
2018-05-29T10:48:35.606Z,5692.00
2018-05-29T10:49:35.638Z,5472.00
2018-05-29T10:50:35.669Z,5716.00
2018-05-29T10:51:35.699Z,5796.00
2018-05-29T10:52:35.776Z,5712.00
2018-05-29T10:53:35.763Z,5548.00
2018-05-29T10:54:35.792Z,5672.00
2018-05-29T10:55:35.823Z,5480.00
2018-05-29T10:56:35.854Z,3776.00
2018-05-29T10:57:35.885Z,5532.00
2018-05-29T10:58:35.918Z,5596.00
2018-05-29T10:59:35.947Z,5636.00
2018-05-29T11:00:35.978Z,5660.00
2018-05-29T11:01:36.010Z,5712.00
2018-05-29T11:02:36.042Z,5720.00
2018-05-29T11:03:36.071Z,5820.00
2018-05-29T11:04:36.102Z,5932.00
2018-05-29T11:05:36.134Z,5912.00
2018-05-29T11:06:36.165Z,5848.00
2018-05-29T11:07:36.196Z,5852.00
2018-05-29T11:08:36.227Z,5724.00
2018-05-29T11:09:36.259Z,5588.00
2018-05-29T11:10:36.289Z,5584.00
2018-05-29T11:11:36.319Z,5440.00
2018-05-29T11:12:36.351Z,5456.00
2018-05-29T11:13:36.382Z,5392.00
2018-05-29T11:14:36.413Z,5388.00
2018-05-29T11:15:36.444Z,5376.00
2018-05-29T11:16:36.479Z,5348.00
2018-05-29T11:17:36.512Z,5364.00
2018-05-29T11:18:36.538Z,5308.00
2018-05-29T11:19:36.568Z,5308.00
2018-05-29T11:20:36.600Z,5272.00
2018-05-29T11:21:36.632Z,5172.00
2018-05-29T11:22:36.664Z,5220.00
2018-05-29T11:23:36.699Z,5220.00
2018-05-29T11:24:36.725Z,5204.00
2018-05-29T11:25:36.756Z,5224.00
2018-05-29T11:26:36.788Z,5272.00
2018-05-29T11:27:36.818Z,5364.00
2018-05-29T11:28:36.849Z,5328.00
2018-05-29T11:29:36.880Z,5340.00
2018-05-29T11:30:36.912Z,5296.00
2018-05-29T11:31:36.941Z,5368.00
2018-05-29T11:32:36.973Z,5496.00
2018-05-29T11:33:37.007Z,5500.00
2018-05-29T11:34:37.035Z,5488.00
2018-05-29T11:35:37.065Z,5500.00
2018-05-29T11:36:37.096Z,5512.00
2018-05-29T11:37:37.128Z,5544.00
2018-05-29T11:38:37.162Z,5488.00
2018-05-29T11:39:37.197Z,5624.00
2018-05-29T11:40:37.221Z,5512.00
2018-05-29T11:41:37.254Z,5548.00
2018-05-29T11:42:37.283Z,5656.00
2018-05-29T11:43:37.313Z,5776.00
2018-05-29T11:44:37.344Z,5752.00
2018-05-29T11:45:37.376Z,5748.00
2018-05-29T11:46:37.408Z,3880.00
2018-05-29T11:47:37.438Z,5704.00
2018-05-29T11:48:37.485Z,5628.00
2018-05-29T11:49:37.502Z,5596.00
2018-05-29T11:50:37.686Z,3812.00
2018-05-29T11:51:37.563Z,3720.00
2018-05-29T11:52:37.594Z,3676.00
2018-05-29T11:53:37.626Z,4136.00
2018-05-29T11:54:37.657Z,5620.00
2018-05-29T11:55:37.687Z,4180.00
2018-05-29T11:56:37.723Z,3528.00
2018-05-29T11:57:37.751Z,3552.00
2018-05-29T11:58:37.781Z,3696.00
2018-05-29T11:59:37.963Z,4092.00
2018-05-29T12:00:37.858Z,5376.00
2018-05-29T12:01:37.876Z,7244.00
2018-05-29T12:02:37.906Z,7600.00
2018-05-29T12:03:37.937Z,7656.00
2018-05-29T12:04:37.970Z,7324.00
2018-05-29T12:05:38.005Z,7064.00
2018-05-29T12:06:38.032Z,5236.00
2018-05-29T12:07:38.092Z,5212.00
2018-05-29T12:08:38.092Z,5056.00
2018-05-29T12:09:38.124Z,6520.00
2018-05-29T12:10:38.156Z,6584.00
2018-05-29T12:11:38.191Z,5152.00
2018-05-29T12:12:38.217Z,6940.00
2018-05-29T12:13:38.250Z,5784.00
2018-05-29T12:14:38.284Z,7344.00
2018-05-29T12:15:38.312Z,7436.00
2018-05-29T12:16:38.342Z,7736.00
2018-05-29T12:17:38.375Z,7772.00
2018-05-29T12:18:38.656Z,7684.00
2018-05-29T12:19:38.438Z,7256.00
2018-05-29T12:20:38.474Z,7104.00
2018-05-29T12:21:38.500Z,5164.00
2018-05-29T12:22:38.532Z,4940.00
2018-05-29T12:23:38.562Z,4828.00
2018-05-29T12:24:38.594Z,4788.00